createdAt,value
2022-10-20T00:00:02.813Z,6.19
2022-10-20T00:01:02.814Z,6.08
2022-10-20T00:02:02.804Z,6.17
2022-10-20T00:03:02.868Z,6.05
2022-10-20T00:04:02.807Z,6.22
2022-10-20T00:05:02.784Z,6.08
2022-10-20T00:06:02.774Z,6.14
2022-10-20T00:07:02.756Z,6.14
2022-10-20T00:08:02.756Z,6.08
2022-10-20T00:09:02.837Z,6.07
2022-10-20T00:10:02.735Z,6.05
2022-10-20T00:11:02.739Z,6.01
2022-10-20T00:12:02.715Z,5.91
2022-10-20T00:13:02.718Z,5.86
2022-10-20T00:14:02.718Z,5.75
2022-10-20T00:15:02.725Z,5.84
2022-10-20T00:16:03.433Z,5.71
2022-10-20T00:17:02.671Z,5.76
2022-10-20T00:18:02.676Z,5.56
2022-10-20T00:19:02.680Z,5.68
2022-10-20T00:20:02.700Z,5.59
2022-10-20T00:21:02.646Z,5.47
2022-10-20T00:22:02.645Z,5.35
2022-10-20T00:23:02.629Z,5.41
2022-10-20T00:24:02.640Z,5.26
2022-10-20T00:25:02.620Z,5.38
2022-10-20T00:26:02.597Z,5.23
2022-10-20T00:27:02.596Z,5.28
2022-10-20T00:28:02.593Z,5.28
2022-10-20T00:30:02.675Z,5.23
2022-10-20T00:31:02.645Z,5.21
2022-10-20T00:32:03.724Z,5.14
2022-10-20T00:33:03.721Z,5.12
2022-10-20T00:34:03.712Z,5.12
2022-10-20T00:35:03.719Z,5.10
2022-10-20T00:36:03.715Z,5.17
2022-10-20T00:37:03.697Z,5.17
2022-10-20T00:38:03.691Z,5.08
2022-10-20T00:39:03.674Z,5.15
2022-10-20T00:40:03.670Z,5.20
2022-10-20T00:41:03.667Z,5.26
2022-10-20T00:42:03.661Z,5.23
2022-10-20T00:43:03.642Z,5.18
2022-10-20T00:44:03.639Z,5.23
2022-10-20T00:45:03.624Z,5.21
2022-10-20T00:46:03.619Z,5.14
2022-10-20T00:47:03.616Z,5.11
2022-10-20T00:48:04.540Z,5.12
2022-10-20T00:49:03.600Z,5.10
2022-10-20T00:50:03.598Z,5.14
2022-10-20T00:51:03.579Z,5.18
2022-10-20T00:52:03.575Z,5.14
2022-10-20T00:53:03.566Z,5.08
2022-10-20T00:54:03.569Z,5.20
2022-10-20T00:55:03.548Z,5.14
2022-10-20T00:56:03.551Z,5.11
2022-10-20T00:58:03.526Z,4.97
2022-10-20T00:59:03.524Z,4.92
2022-10-20T01:00:03.512Z,4.90
2022-10-20T01:01:03.510Z,4.84
2022-10-20T01:02:03.793Z,4.86
2022-10-20T01:03:03.486Z,4.80
2022-10-20T01:04:03.475Z,4.74
2022-10-20T01:05:03.482Z,4.80
2022-10-20T01:06:03.457Z,4.67
2022-10-20T01:07:03.466Z,4.74
2022-10-20T01:08:03.453Z,4.78
2022-10-20T01:09:03.501Z,4.67
2022-10-20T01:10:03.443Z,4.70
2022-10-20T01:11:03.413Z,4.53
2022-10-20T01:12:03.405Z,4.63
2022-10-20T01:13:03.405Z,4.63
2022-10-20T01:14:04.032Z,4.60
2022-10-20T01:15:03.396Z,4.68
2022-10-20T01:16:03.374Z,4.63
2022-10-20T01:17:03.369Z,4.59
2022-10-20T01:18:03.436Z,4.66
2022-10-20T01:19:03.368Z,4.53
2022-10-20T01:20:03.347Z,4.62
2022-10-20T01:21:03.335Z,4.63
2022-10-20T01:22:03.329Z,4.56
2022-10-20T01:23:03.337Z,4.53
2022-10-20T01:24:03.319Z,4.49
2022-10-20T01:25:03.311Z,4.44
2022-10-20T01:26:03.302Z,4.42
2022-10-20T01:27:03.294Z,4.38
2022-10-20T01:28:03.286Z,4.32
2022-10-20T01:29:03.277Z,4.31
2022-10-20T01:30:03.268Z,4.26
2022-10-20T01:31:03.275Z,4.30
2022-10-20T01:32:03.253Z,4.26
2022-10-20T01:33:03.259Z,4.20
2022-10-20T01:34:03.243Z,4.23
2022-10-20T01:35:03.227Z,4.26
2022-10-20T01:36:03.240Z,4.16
2022-10-20T01:37:03.215Z,4.12
2022-10-20T01:38:03.207Z,4.20
2022-10-20T01:39:03.204Z,4.24
2022-10-20T01:40:03.188Z,4.16
2022-10-20T01:41:03.194Z,4.17
2022-10-20T01:42:03.189Z,4.10
2022-10-20T01:43:03.156Z,4.19
2022-10-20T01:44:03.153Z,4.10
2022-10-20T01:45:04.109Z,4.17
2022-10-20T01:46:03.144Z,4.02
2022-10-20T01:47:03.142Z,4.01
2022-10-20T01:48:03.125Z,4.05
2022-10-20T01:49:03.133Z,4.01
2022-10-20T01:50:03.116Z,3.95
2022-10-20T01:51:03.098Z,3.95
2022-10-20T01:52:03.100Z,4.04
2022-10-20T01:53:03.111Z,4.05
2022-10-20T01:54:03.083Z,4.05
2022-10-20T01:55:03.162Z,4.04
2022-10-20T01:56:03.062Z,4.04
2022-10-20T01:57:03.050Z,4.08
2022-10-20T01:58:03.049Z,4.06
2022-10-20T01:59:03.037Z,4.04
2022-10-20T02:00:03.038Z,4.01
2022-10-20T02:01:03.044Z,4.08
2022-10-20T02:02:03.011Z,4.08
2022-10-20T02:03:03.005Z,4.05
2022-10-20T02:04:03.011Z,4.02
2022-10-20T02:05:02.996Z,4.06
2022-10-20T02:06:03.035Z,3.99
2022-10-20T02:07:02.982Z,4.08
2022-10-20T02:08:02.969Z,4.05
2022-10-20T02:09:02.986Z,3.98
2022-10-20T02:10:02.963Z,4.01
2022-10-20T02:11:02.946Z,4.06
2022-10-20T02:12:02.938Z,4.05
2022-10-20T02:13:02.932Z,4.02
2022-10-20T02:14:02.936Z,4.01
2022-10-20T02:15:02.921Z,4.05
2022-10-20T02:16:02.903Z,4.10
2022-10-20T02:17:03.609Z,4.08
2022-10-20T02:18:02.888Z,4.17
2022-10-20T02:19:02.902Z,4.10
2022-10-20T02:20:02.868Z,4.05
2022-10-20T02:21:02.859Z,4.20
2022-10-20T02:22:02.858Z,4.19
2022-10-20T02:23:02.890Z,4.13
2022-10-20T02:24:02.832Z,3.95
2022-10-20T02:25:02.828Z,4.05
2022-10-20T02:26:02.816Z,3.95
2022-10-20T02:27:02.821Z,3.98
2022-10-20T02:28:02.817Z,3.99
2022-10-20T02:29:02.797Z,4.04
2022-10-20T02:30:02.780Z,3.99
2022-10-20T02:31:02.776Z,3.96
2022-10-20T02:32:02.768Z,4.01
2022-10-20T02:33:02.758Z,3.96
2022-10-20T02:34:02.752Z,3.98
2022-10-20T02:35:05.104Z,3.96
2022-10-20T02:36:02.734Z,4.04
2022-10-20T02:37:02.762Z,3.95
2022-10-20T02:38:02.719Z,3.98
2022-10-20T02:39:02.705Z,3.95
2022-10-20T02:40:02.702Z,4.08
2022-10-20T02:41:02.695Z,3.87
2022-10-20T02:42:02.679Z,3.95
2022-10-20T02:43:02.672Z,3.92
2022-10-20T02:44:02.664Z,3.91
2022-10-20T02:45:02.663Z,3.88
2022-10-20T02:46:02.743Z,3.99
2022-10-20T02:47:02.643Z,3.83
2022-10-20T02:48:05.147Z,3.87
2022-10-20T02:49:03.626Z,3.94
2022-10-20T02:50:02.613Z,3.78
2022-10-20T02:51:02.615Z,3.87
2022-10-20T02:52:02.600Z,3.73
2022-10-20T02:53:02.593Z,3.68
2022-10-20T02:54:02.597Z,3.60
2022-10-20T02:55:02.578Z,3.60
2022-10-20T02:56:02.598Z,3.68
2022-10-20T02:57:02.557Z,3.69
2022-10-20T02:58:02.556Z,3.69
2022-10-20T02:59:02.551Z,3.62
2022-10-20T03:00:02.537Z,3.63
2022-10-20T03:01:02.531Z,3.69
2022-10-20T03:02:02.532Z,3.59
2022-10-20T03:03:02.516Z,3.63
2022-10-20T03:04:02.496Z,3.73
2022-10-20T03:05:02.503Z,3.63
2022-10-20T03:06:02.482Z,3.55
2022-10-20T03:07:02.470Z,3.48
2022-10-20T03:08:02.485Z,3.50
2022-10-20T03:09:02.548Z,3.41
2022-10-20T03:10:02.456Z,3.29
2022-10-20T03:11:02.462Z,3.37
2022-10-20T03:12:02.439Z,3.36
2022-10-20T03:13:03.127Z,3.32
2022-10-20T03:14:02.526Z,3.21
2022-10-20T03:15:02.417Z,3.26
2022-10-20T03:16:02.408Z,3.14
2022-10-20T03:17:02.412Z,3.22
2022-10-20T03:18:02.392Z,3.23
2022-10-20T03:19:05.320Z,3.28
2022-10-20T03:20:03.379Z,3.18
2022-10-20T03:21:02.383Z,3.19
2022-10-20T03:22:03.158Z,3.16
2022-10-20T03:23:02.349Z,3.18
2022-10-20T03:24:02.338Z,3.22
2022-10-20T03:25:02.335Z,3.25
2022-10-20T03:26:03.059Z,3.22
2022-10-20T03:27:02.322Z,3.19
2022-10-20T03:28:02.307Z,3.25
2022-10-20T03:29:02.300Z,3.21
2022-10-20T03:30:02.292Z,3.14
2022-10-20T03:31:02.307Z,3.11
2022-10-20T03:32:02.280Z,3.14
2022-10-20T03:33:02.267Z,3.19
2022-10-20T03:34:02.261Z,3.13
2022-10-20T03:35:02.245Z,3.19
2022-10-20T03:36:02.251Z,3.14
2022-10-20T03:37:02.230Z,3.14
2022-10-20T03:38:02.237Z,3.16
2022-10-20T03:39:02.219Z,3.19
2022-10-20T03:40:02.231Z,3.16
2022-10-20T03:42:03.197Z,3.01
2022-10-20T03:43:02.186Z,3.11
2022-10-20T03:44:03.053Z,3.13
2022-10-20T03:45:02.169Z,3.05
2022-10-20T03:46:02.180Z,3.11
2022-10-20T03:47:02.161Z,3.05
2022-10-20T03:48:02.144Z,3.07
2022-10-20T03:49:02.143Z,2.93
2022-10-20T03:50:02.288Z,2.90
2022-10-20T03:51:02.130Z,2.95
2022-10-20T03:52:02.113Z,2.98
2022-10-20T03:53:02.121Z,2.87
2022-10-20T03:54:02.104Z,2.90
2022-10-20T03:55:02.092Z,2.93
2022-10-20T03:56:02.083Z,2.87
2022-10-20T03:57:06.789Z,2.93
2022-10-20T03:58:04.074Z,2.93
2022-10-20T04:00:02.063Z,2.93
2022-10-20T04:01:02.041Z,2.93
2022-10-20T04:02:02.115Z,2.93
2022-10-20T04:03:02.033Z,2.97
2022-10-20T04:04:02.023Z,2.93
2022-10-20T04:05:02.012Z,2.85
2022-10-20T04:06:03.010Z,2.93
2022-10-20T04:07:02.003Z,2.92
2022-10-20T04:08:02.035Z,2.93
2022-10-20T04:09:02.061Z,2.97
2022-10-20T04:10:01.993Z,2.87
2022-10-20T04:11:01.998Z,2.93
2022-10-20T04:12:01.975Z,3.01
2022-10-20T04:13:01.960Z,3.00
2022-10-20T04:14:01.944Z,2.97
2022-10-20T04:15:01.948Z,2.90
2022-10-20T04:16:01.950Z,2.86
2022-10-20T04:17:01.935Z,2.98
2022-10-20T04:18:01.967Z,2.98
2022-10-20T04:19:01.911Z,3.00
2022-10-20T04:20:01.933Z,2.93
2022-10-20T04:21:01.903Z,2.95
2022-10-20T04:22:01.918Z,2.97
2022-10-20T04:23:01.884Z,3.00
2022-10-20T04:24:01.866Z,3.00
2022-10-20T04:25:01.854Z,2.98
2022-10-20T04:26:01.891Z,3.03
2022-10-20T04:27:01.843Z,2.97
2022-10-20T04:28:01.839Z,3.05
2022-10-20T04:29:01.852Z,3.00
2022-10-20T04:30:01.818Z,3.08
2022-10-20T04:31:01.812Z,3.03
2022-10-20T04:32:01.814Z,3.10
2022-10-20T04:33:01.805Z,3.14
2022-10-20T04:34:01.804Z,3.08
2022-10-20T04:35:01.780Z,3.10
2022-10-20T04:36:01.766Z,3.16
2022-10-20T04:37:01.762Z,3.13
2022-10-20T04:38:01.759Z,3.04
2022-10-20T04:39:01.759Z,3.04
2022-10-20T04:40:01.738Z,3.00
2022-10-20T04:41:04.011Z,3.07
2022-10-20T04:42:02.721Z,3.03
2022-10-20T04:43:01.774Z,3.14
2022-10-20T04:44:01.717Z,3.16
2022-10-20T04:45:03.659Z,3.10
2022-10-20T04:46:03.973Z,3.11
2022-10-20T04:47:02.690Z,3.07
2022-10-20T04:48:01.684Z,3.08
2022-10-20T04:49:01.689Z,3.13
2022-10-20T04:50:01.668Z,3.11
2022-10-20T04:51:01.654Z,3.08
2022-10-20T04:52:01.675Z,3.10
2022-10-20T04:53:01.636Z,3.05
2022-10-20T04:54:01.649Z,3.10
2022-10-20T04:55:01.647Z,3.10
2022-10-20T04:56:01.632Z,3.08
2022-10-20T04:57:01.663Z,3.05
2022-10-20T04:58:01.599Z,3.07
2022-10-20T04:59:01.588Z,3.11
2022-10-20T05:00:01.594Z,3.08
2022-10-20T05:01:02.132Z,3.11
2022-10-20T05:02:01.651Z,3.05
2022-10-20T05:03:01.607Z,3.07
2022-10-20T05:04:01.579Z,3.03
2022-10-20T05:05:01.541Z,3.13
2022-10-20T05:06:01.537Z,3.10
2022-10-20T05:07:01.537Z,3.10
2022-10-20T05:08:01.519Z,3.14
2022-10-20T05:09:01.671Z,3.07
2022-10-20T05:10:01.529Z,3.07
2022-10-20T05:11:01.503Z,3.14
2022-10-20T05:12:01.543Z,3.07
2022-10-20T05:13:01.481Z,3.01
2022-10-20T05:14:01.471Z,3.07
2022-10-20T05:15:01.477Z,3.03
2022-10-20T05:16:01.457Z,3.16
2022-10-20T05:17:03.228Z,3.16
2022-10-20T05:18:02.440Z,3.01
2022-10-20T05:19:01.444Z,3.08
2022-10-20T05:20:01.422Z,3.05
2022-10-20T05:21:09.069Z,2.95
2022-10-20T05:22:03.428Z,2.97
2022-10-20T05:23:01.402Z,3.03
2022-10-20T05:24:01.409Z,3.05
2022-10-20T05:25:24.472Z,3.05
2022-10-20T05:26:03.669Z,3.04
2022-10-20T05:27:01.388Z,3.08
2022-10-20T05:28:06.099Z,2.92
2022-10-20T05:29:01.365Z,3.03
2022-10-20T05:30:01.341Z,2.93
2022-10-20T05:31:01.709Z,3.01
2022-10-20T05:32:02.342Z,2.98
2022-10-20T05:33:01.325Z,2.92
2022-10-20T05:34:01.327Z,2.97
2022-10-20T05:35:01.311Z,3.01
2022-10-20T05:36:01.292Z,3.00
2022-10-20T05:37:01.301Z,3.00
2022-10-20T05:38:02.147Z,3.00
2022-10-20T05:39:01.267Z,3.03
2022-10-20T05:40:01.269Z,2.97
2022-10-20T05:41:01.251Z,2.90
2022-10-20T05:42:01.245Z,2.95
2022-10-20T05:43:01.276Z,2.93
2022-10-20T05:44:01.237Z,2.83
2022-10-20T05:45:01.226Z,3.00
2022-10-20T05:46:01.225Z,2.98
2022-10-20T05:47:01.214Z,2.93
2022-10-20T05:48:01.205Z,2.98
2022-10-20T05:49:01.198Z,2.93
2022-10-20T05:50:01.191Z,2.90
2022-10-20T05:51:01.181Z,2.89
2022-10-20T05:52:01.170Z,2.92
2022-10-20T05:53:01.173Z,2.92
2022-10-20T05:54:01.151Z,2.85
2022-10-20T05:55:01.176Z,2.87
2022-10-20T05:56:01.146Z,2.97
2022-10-20T05:57:01.208Z,2.97
2022-10-20T05:58:01.117Z,3.01
2022-10-20T05:59:01.121Z,2.95
2022-10-20T06:00:01.111Z,2.89
2022-10-20T06:01:01.096Z,3.00
2022-10-20T06:02:01.090Z,2.95
2022-10-20T06:03:01.088Z,2.90
2022-10-20T06:04:01.078Z,2.90
2022-10-20T06:05:01.079Z,2.98
2022-10-20T06:06:01.069Z,2.85
2022-10-20T06:07:01.052Z,3.00
2022-10-20T06:08:01.056Z,3.03
2022-10-20T06:09:01.104Z,3.01
2022-10-20T06:10:01.055Z,3.04
2022-10-20T06:11:01.025Z,3.07
2022-10-20T06:12:01.023Z,3.13
2022-10-20T06:13:02.005Z,3.07
2022-10-20T06:14:01.009Z,3.11
2022-10-20T06:15:01.005Z,3.14
2022-10-20T06:16:00.989Z,3.18
2022-10-20T06:17:00.995Z,3.13
2022-10-20T06:18:00.971Z,3.18
2022-10-20T06:19:00.954Z,3.22
2022-10-20T06:20:00.945Z,3.21
2022-10-20T06:21:00.947Z,3.28
2022-10-20T06:22:04.001Z,3.25
2022-10-20T06:23:02.921Z,3.22
2022-10-20T06:24:00.915Z,3.26
2022-10-20T06:25:00.947Z,3.32
2022-10-20T06:26:00.895Z,3.37
2022-10-20T06:27:02.188Z,3.47
2022-10-20T06:28:00.876Z,3.55
2022-10-20T06:29:04.276Z,3.56
2022-10-20T06:30:01.862Z,3.65
2022-10-20T06:31:00.887Z,3.80
2022-10-20T06:32:00.934Z,3.87
2022-10-20T06:33:00.840Z,3.92
2022-10-20T06:34:00.829Z,3.98
2022-10-20T06:35:00.833Z,4.05
2022-10-20T06:36:00.817Z,4.24
2022-10-20T06:37:00.804Z,4.35
2022-10-20T06:38:00.863Z,4.42
2022-10-20T06:39:00.785Z,4.48
2022-10-20T06:40:00.792Z,4.62
2022-10-20T06:41:01.575Z,4.56
2022-10-20T06:42:00.764Z,4.58
2022-10-20T06:43:00.761Z,4.77
2022-10-20T06:44:00.754Z,4.87
2022-10-20T06:45:00.743Z,4.82
2022-10-20T06:46:00.763Z,4.75
2022-10-20T06:47:01.599Z,4.63
2022-10-20T06:48:00.712Z,4.70
2022-10-20T06:49:00.705Z,4.67
2022-10-20T06:50:00.691Z,4.82
2022-10-20T06:51:01.589Z,4.82
2022-10-20T06:52:00.718Z,4.77
2022-10-20T06:53:00.664Z,4.84
2022-10-20T06:54:01.587Z,4.87
2022-10-20T06:55:00.668Z,4.90
2022-10-20T06:56:00.661Z,4.93
2022-10-20T06:57:00.666Z,4.97
2022-10-20T06:58:00.624Z,5.10
2022-10-20T06:59:00.619Z,5.12
2022-10-20T07:00:00.800Z,5.36
2022-10-20T07:01:00.731Z,5.43
2022-10-20T07:02:00.670Z,5.61
2022-10-20T07:03:00.596Z,5.59
2022-10-20T07:04:00.581Z,5.65
2022-10-20T07:05:00.578Z,5.82
2022-10-20T07:06:00.559Z,5.83
2022-10-20T07:07:00.558Z,5.79
2022-10-20T07:08:00.597Z,5.86
2022-10-20T07:09:00.589Z,5.97
2022-10-20T07:10:00.562Z,6.02
2022-10-20T07:11:00.527Z,6.04
2022-10-20T07:12:00.526Z,6.07
2022-10-20T07:13:00.512Z,6.05
2022-10-20T07:14:00.499Z,6.12
2022-10-20T07:15:00.488Z,6.01
2022-10-20T07:16:00.484Z,6.08
2022-10-20T07:17:00.484Z,6.14
2022-10-20T07:18:00.484Z,6.27
2022-10-20T07:19:00.458Z,6.44
2022-10-20T07:20:00.454Z,6.57
2022-10-20T07:21:00.445Z,6.60
2022-10-20T07:22:00.437Z,6.69
2022-10-20T07:23:00.430Z,6.75
2022-10-20T07:24:00.438Z,6.81
2022-10-20T07:25:00.449Z,6.85
2022-10-20T07:26:00.412Z,6.81
2022-10-20T07:27:00.396Z,6.88
2022-10-20T07:28:00.391Z,6.93
2022-10-20T07:29:01.068Z,6.84
2022-10-20T07:30:00.383Z,6.97
2022-10-20T07:31:00.358Z,7.10
2022-10-20T07:32:02.039Z,7.00
2022-10-20T07:33:00.349Z,7.13
2022-10-20T07:34:13.086Z,7.05
2022-10-20T07:35:02.347Z,7.11
2022-10-20T07:36:00.337Z,6.99
2022-10-20T07:37:00.316Z,7.03
2022-10-20T07:38:00.339Z,7.05
2022-10-20T07:39:00.306Z,7.10
2022-10-20T07:40:00.296Z,7.07
2022-10-20T07:41:01.488Z,7.24
2022-10-20T07:42:00.279Z,7.33
2022-10-20T07:43:00.268Z,7.42
2022-10-20T07:44:00.260Z,7.61
2022-10-20T07:45:00.278Z,7.56
2022-10-20T07:46:00.297Z,7.67
2022-10-20T07:47:00.236Z,7.80
2022-10-20T07:48:00.218Z,7.85
2022-10-20T07:49:23.991Z,7.88
2022-10-20T07:50:02.216Z,7.95
2022-10-20T07:51:00.216Z,8.15
2022-10-20T07:52:00.239Z,8.23
2022-10-20T07:53:00.188Z,8.31
2022-10-20T07:54:00.762Z,8.53
2022-10-20T07:55:12.323Z,8.73
2022-10-20T07:56:02.155Z,8.69
2022-10-20T07:57:00.163Z,8.87
2022-10-20T07:58:00.150Z,9.03
2022-10-20T07:59:00.158Z,9.10
2022-10-20T08:00:00.162Z,9.21
2022-10-20T08:01:00.135Z,9.21
2022-10-20T08:02:00.562Z,9.36
2022-10-20T08:03:00.109Z,9.44
2022-10-20T08:04:00.100Z,9.46
2022-10-20T08:05:00.098Z,9.55
2022-10-20T08:06:00.121Z,9.58
2022-10-20T08:07:00.083Z,9.46
2022-10-20T08:08:00.063Z,9.48
2022-10-20T08:09:00.183Z,9.55
2022-10-20T08:10:00.053Z,9.40
2022-10-20T08:11:00.042Z,9.46
2022-10-20T08:12:00.041Z,9.47
2022-10-20T08:13:00.019Z,9.44
2022-10-20T08:14:00.606Z,9.47
2022-10-20T08:15:00.026Z,9.59
2022-10-20T08:16:03.064Z,9.56
2022-10-20T08:17:01.662Z,9.50
2022-10-20T08:17:59.982Z,9.50
2022-10-20T08:19:05.573Z,9.51
2022-10-20T08:20:03.076Z,9.54
2022-10-20T08:20:59.957Z,9.55
2022-10-20T08:21:59.947Z,9.66
2022-10-20T08:22:59.938Z,9.66
2022-10-20T08:23:59.931Z,9.62
2022-10-20T08:25:00.555Z,9.72
2022-10-20T08:25:59.925Z,9.65
2022-10-20T08:26:59.954Z,9.82
2022-10-20T08:27:59.952Z,9.82
2022-10-20T08:28:59.888Z,9.84
2022-10-20T08:30:06.258Z,9.92
2022-10-20T08:31:01.883Z,9.94
2022-10-20T08:31:59.906Z,10.04
2022-10-20T08:32:59.863Z,10.10
2022-10-20T08:33:59.875Z,9.95
2022-10-20T08:34:59.848Z,10.01
2022-10-20T08:35:59.854Z,10.09
2022-10-20T08:36:59.840Z,10.07
2022-10-20T08:37:59.824Z,9.99
2022-10-20T08:39:03.485Z,10.04
2022-10-20T08:40:01.797Z,10.09
2022-10-20T08:40:59.805Z,9.94
2022-10-20T08:42:09.050Z,9.95
2022-10-20T08:43:01.784Z,9.86
2022-10-20T08:43:59.779Z,9.87
2022-10-20T08:44:59.763Z,9.72
2022-10-20T08:45:59.845Z,9.72
2022-10-20T08:46:59.756Z,9.79
2022-10-20T08:47:59.747Z,9.83
2022-10-20T08:49:00.674Z,9.82
2022-10-20T08:50:00.727Z,9.86
2022-10-20T08:50:59.726Z,9.83
2022-10-20T08:51:59.711Z,9.69
2022-10-20T08:52:59.709Z,9.87
2022-10-20T08:53:59.806Z,9.92
2022-10-20T08:54:59.698Z,10.01
2022-10-20T08:55:59.693Z,10.15
2022-10-20T08:56:59.680Z,10.38
2022-10-20T08:57:59.674Z,10.38
2022-10-20T08:58:59.653Z,10.54
2022-10-20T08:59:59.633Z,10.48
2022-10-20T09:01:00.655Z,10.53
2022-10-20T09:01:59.730Z,10.56
2022-10-20T09:02:59.618Z,10.67
2022-10-20T09:03:59.635Z,10.76
2022-10-20T09:04:59.667Z,10.81
2022-10-20T09:05:59.592Z,10.86
2022-10-20T09:06:59.589Z,10.86
2022-10-20T09:07:59.587Z,10.82
2022-10-20T09:08:59.615Z,10.93
2022-10-20T09:09:59.572Z,11.04
2022-10-20T09:10:59.557Z,11.14
2022-10-20T09:11:59.559Z,11.25
2022-10-20T09:12:59.537Z,11.11
2022-10-20T09:13:59.525Z,11.11
2022-10-20T09:14:59.599Z,11.17
2022-10-20T09:15:59.533Z,11.25
2022-10-20T09:17:00.844Z,11.33
2022-10-20T09:18:00.504Z,11.25
2022-10-20T09:18:59.492Z,11.29
2022-10-20T09:19:59.506Z,11.44
2022-10-20T09:20:59.473Z,11.45
2022-10-20T09:21:59.476Z,11.65
2022-10-20T09:23:01.419Z,11.94
2022-10-20T09:24:00.451Z,11.97
2022-10-20T09:24:59.460Z,12.21
2022-10-20T09:25:59.433Z,12.35
2022-10-20T09:27:00.265Z,12.58
2022-10-20T09:28:00.415Z,12.78
2022-10-20T09:29:12.357Z,12.97
2022-10-20T09:30:01.408Z,13.08
2022-10-20T09:30:59.392Z,13.12
2022-10-20T09:32:11.414Z,13.22
2022-10-20T09:33:01.756Z,13.27
2022-10-20T09:33:59.420Z,13.46
2022-10-20T09:34:59.364Z,13.59
2022-10-20T09:37:07.295Z,13.68
2022-10-20T09:38:07.299Z,13.67
2022-10-20T09:39:07.279Z,13.77
2022-10-20T09:40:08.364Z,13.78
2022-10-20T09:41:09.372Z,13.83
2022-10-20T09:42:08.398Z,13.81
2022-10-20T09:43:08.485Z,13.87
2022-10-20T09:44:08.343Z,13.93
2022-10-20T09:45:08.419Z,13.97
2022-10-20T09:46:08.440Z,13.78
2022-10-20T09:47:08.309Z,13.79
2022-10-20T09:48:08.318Z,13.86
2022-10-20T09:49:08.345Z,13.85
2022-10-20T09:50:09.564Z,13.83
2022-10-20T09:51:08.303Z,13.85
2022-10-20T09:52:08.288Z,13.71
2022-10-20T09:53:08.281Z,13.67
2022-10-20T09:54:08.260Z,13.67
2022-10-20T09:55:09.244Z,13.63
2022-10-20T09:56:08.249Z,13.74
2022-10-20T09:57:08.284Z,13.78
2022-10-20T09:58:08.251Z,13.71
2022-10-20T09:59:08.243Z,13.87
2022-10-20T10:00:25.235Z,14.04
2022-10-20T10:01:10.319Z,14.17
2022-10-20T10:02:08.271Z,14.18
2022-10-20T10:03:08.187Z,14.25
2022-10-20T10:04:11.006Z,14.29
2022-10-20T10:05:11.070Z,14.41
2022-10-20T10:06:08.165Z,14.45
2022-10-20T10:07:08.143Z,14.48
2022-10-20T10:08:08.133Z,14.53
2022-10-20T10:09:08.199Z,14.55
2022-10-20T10:10:08.815Z,14.55
2022-10-20T10:11:08.127Z,14.63
2022-10-20T10:12:08.694Z,14.73
2022-10-20T10:13:08.118Z,14.78
2022-10-20T10:14:08.092Z,14.97
2022-10-20T10:15:08.102Z,15.04
2022-10-20T10:16:08.065Z,15.07
2022-10-20T10:17:08.077Z,15.11
2022-10-20T10:18:08.095Z,15.14
2022-10-20T10:19:08.086Z,15.21
2022-10-20T10:20:08.054Z,15.06
2022-10-20T10:21:08.083Z,14.96
2022-10-20T10:22:08.044Z,14.99
2022-10-20T10:23:08.027Z,15.11
2022-10-20T10:24:08.008Z,15.14
2022-10-20T10:25:07.996Z,15.24
2022-10-20T10:26:07.997Z,15.29
2022-10-20T10:27:08.683Z,15.44
2022-10-20T10:28:08.036Z,15.55
2022-10-20T10:29:07.963Z,15.59
2022-10-20T10:30:07.962Z,15.67
2022-10-20T10:31:07.950Z,15.76
2022-10-20T10:32:10.588Z,15.75
2022-10-20T10:33:07.942Z,15.57
2022-10-20T10:34:07.918Z,15.58
2022-10-20T10:35:07.921Z,15.55
2022-10-20T10:36:08.942Z,15.64
2022-10-20T10:37:07.937Z,15.70
2022-10-20T10:38:07.925Z,15.82
2022-10-20T10:39:07.910Z,16.01
2022-10-20T10:40:07.865Z,15.94
2022-10-20T10:41:07.856Z,16.13
2022-10-20T10:42:07.869Z,16.15
2022-10-20T10:43:07.864Z,16.20
2022-10-20T10:44:07.866Z,16.23
2022-10-20T10:45:08.669Z,16.35
2022-10-20T10:46:07.857Z,16.35
2022-10-20T10:47:07.834Z,16.41
2022-10-20T10:48:07.830Z,16.46
2022-10-20T10:49:08.695Z,16.49
2022-10-20T10:50:08.178Z,16.54
2022-10-20T10:52:15.540Z,16.57
2022-10-20T10:53:15.510Z,16.61
2022-10-20T10:54:15.506Z,16.66
2022-10-20T10:55:30.525Z,16.56
2022-10-20T10:56:18.585Z,16.49
2022-10-20T10:57:16.573Z,16.56
2022-10-20T10:58:16.580Z,16.53
2022-10-20T10:59:16.560Z,16.50
2022-10-20T11:00:16.562Z,16.53
2022-10-20T11:01:16.669Z,16.65
2022-10-20T11:02:17.486Z,16.57
2022-10-20T11:03:16.542Z,16.60
2022-10-20T11:04:16.533Z,16.51
2022-10-20T11:06:17.524Z,16.72
2022-10-20T11:07:16.509Z,16.74
2022-10-20T11:08:16.485Z,16.75
2022-10-20T11:09:16.505Z,16.61
2022-10-20T11:10:16.522Z,16.69
2022-10-20T11:11:16.537Z,16.60
2022-10-20T11:12:16.582Z,16.56
2022-10-20T11:13:16.453Z,16.29
2022-10-20T11:14:16.554Z,16.13
2022-10-20T11:15:16.568Z,16.38
2022-10-20T11:16:17.396Z,16.46
2022-10-20T11:17:16.453Z,16.68
2022-10-20T11:18:16.420Z,16.79
2022-10-20T11:19:16.410Z,16.75
2022-10-20T11:20:16.404Z,16.58
2022-10-20T11:21:16.382Z,16.53
2022-10-20T11:22:16.381Z,16.57
2022-10-20T11:23:16.365Z,16.57
2022-10-20T11:24:16.359Z,16.61
2022-10-20T11:25:16.349Z,16.46
2022-10-20T11:26:16.336Z,16.47
2022-10-20T11:27:16.341Z,16.50
2022-10-20T11:28:16.323Z,16.61
2022-10-20T11:29:16.334Z,16.60
2022-10-20T11:30:16.310Z,16.68
2022-10-20T11:31:16.296Z,16.68
2022-10-20T11:32:16.310Z,16.68
2022-10-20T11:33:16.279Z,16.74
2022-10-20T11:34:16.278Z,16.66
2022-10-20T11:35:16.341Z,16.68
2022-10-20T11:36:16.257Z,16.86
2022-10-20T11:37:16.257Z,17.04
2022-10-20T11:38:16.262Z,17.14
2022-10-20T11:39:16.896Z,17.22
2022-10-20T11:40:16.234Z,17.14
2022-10-20T11:41:16.227Z,17.15
2022-10-20T11:42:16.220Z,17.23
2022-10-20T11:43:16.219Z,17.09
2022-10-20T11:44:16.201Z,17.14
2022-10-20T11:45:16.233Z,17.06
2022-10-20T11:46:16.981Z,17.01
2022-10-20T11:47:16.176Z,17.08
2022-10-20T11:48:16.180Z,16.96
2022-10-20T11:49:16.161Z,17.11
2022-10-20T11:50:16.190Z,17.09
2022-10-20T11:51:16.168Z,17.20
2022-10-20T11:52:16.143Z,17.23
2022-10-20T11:53:16.137Z,17.12
2022-10-20T11:54:16.130Z,17.19
2022-10-20T11:55:16.118Z,17.23
2022-10-20T11:56:16.116Z,17.20
2022-10-20T11:57:16.107Z,17.16
2022-10-20T11:58:17.907Z,17.30
2022-10-20T11:59:16.093Z,17.44
2022-10-20T12:00:16.109Z,17.38
2022-10-20T12:01:16.075Z,17.54
2022-10-20T12:02:16.120Z,17.34
2022-10-20T12:03:16.984Z,17.23
2022-10-20T12:04:16.054Z,17.20
2022-10-20T12:05:16.038Z,17.27
2022-10-20T12:06:16.041Z,17.36
2022-10-20T12:07:16.033Z,17.51
2022-10-20T12:08:29.399Z,17.36
2022-10-20T12:09:20.001Z,17.19
2022-10-20T12:10:17.035Z,17.14
2022-10-20T12:11:16.943Z,17.06
2022-10-20T12:12:16.987Z,17.05
2022-10-20T12:13:15.993Z,16.94
2022-10-20T12:14:15.995Z,17.08
2022-10-20T12:15:18.927Z,17.04
2022-10-20T12:16:16.965Z,17.15
2022-10-20T12:17:16.489Z,17.11
2022-10-20T12:18:15.958Z,17.16
2022-10-20T12:19:15.930Z,17.08
2022-10-20T12:20:16.929Z,17.12
2022-10-20T12:21:15.933Z,17.16
2022-10-20T12:22:15.927Z,17.16
2022-10-20T12:23:15.915Z,17.08
2022-10-20T12:24:15.894Z,17.14
2022-10-20T12:25:15.886Z,16.99
2022-10-20T12:26:15.885Z,16.90
2022-10-20T12:27:15.889Z,16.66
2022-10-20T12:28:15.872Z,16.75
2022-10-20T12:29:15.880Z,16.84
2022-10-20T12:30:15.861Z,16.84
2022-10-20T12:31:15.851Z,16.93
2022-10-20T12:32:15.844Z,16.81
2022-10-20T12:33:15.826Z,16.90
2022-10-20T12:34:15.825Z,16.93
2022-10-20T12:35:15.831Z,16.96
2022-10-20T12:36:15.809Z,16.93
2022-10-20T12:37:15.808Z,16.99
2022-10-20T12:38:15.786Z,17.05
2022-10-20T12:39:16.782Z,17.11
2022-10-20T12:40:15.777Z,17.11
2022-10-20T12:41:15.773Z,17.05
2022-10-20T12:42:15.825Z,17.08
2022-10-20T12:43:15.753Z,17.01
2022-10-20T12:44:15.787Z,17.11
2022-10-20T12:45:15.750Z,17.05
2022-10-20T12:46:15.782Z,17.11
2022-10-20T12:47:15.735Z,17.01
2022-10-20T12:48:15.755Z,17.14
2022-10-20T12:49:15.729Z,16.99
2022-10-20T12:50:15.697Z,16.68
2022-10-20T12:51:15.691Z,16.53
2022-10-20T12:52:15.682Z,16.38
2022-10-20T12:53:15.675Z,16.35
2022-10-20T12:54:16.582Z,16.29
2022-10-20T12:55:15.756Z,16.17
2022-10-20T12:56:15.651Z,16.12
2022-10-20T12:57:17.625Z,16.12
2022-10-20T12:58:15.634Z,16.17
2022-10-20T12:59:15.636Z,16.16
2022-10-20T13:00:15.638Z,16.12
2022-10-20T13:01:15.664Z,16.17
2022-10-20T13:02:15.602Z,15.97
2022-10-20T13:03:18.045Z,15.91
2022-10-20T13:04:16.635Z,15.98
2022-10-20T13:05:15.587Z,15.82
2022-10-20T13:06:15.569Z,15.84
2022-10-20T13:07:15.561Z,15.91
2022-10-20T13:08:15.556Z,15.88
2022-10-20T13:09:15.578Z,15.82
2022-10-20T13:10:15.543Z,15.92
2022-10-20T13:11:15.531Z,15.98
2022-10-20T13:12:15.582Z,15.97
2022-10-20T13:13:15.523Z,15.94
2022-10-20T13:14:15.512Z,15.94
2022-10-20T13:15:15.501Z,15.94
2022-10-20T13:16:15.495Z,15.97